createdAt,value
2019-03-30T00:00:00.962Z,6.83
2019-03-30T00:02:35.827Z,6.78
2019-03-30T00:05:10.753Z,6.60
2019-03-30T00:07:43.841Z,6.00
2019-03-30T00:10:36.183Z,5.75
2019-03-30T00:13:10.018Z,7.45
2019-03-30T00:15:42.654Z,6.70
2019-03-30T00:18:16.060Z,7.28
2019-03-30T00:20:49.831Z,8.80
2019-03-30T00:23:22.757Z,7.85
2019-03-30T00:25:56.355Z,7.67
2019-03-30T00:28:30.084Z,14.58
2019-03-30T00:31:21.254Z,9.70
2019-03-30T00:33:55.859Z,7.28
2019-03-30T00:36:32.245Z,7.50
2019-03-30T00:39:06.206Z,6.85
2019-03-30T00:41:40.392Z,6.97
2019-03-30T00:44:14.019Z,7.08
2019-03-30T00:46:47.203Z,6.50
2019-03-30T00:49:21.300Z,6.35
2019-03-30T00:51:54.697Z,6.83
2019-03-30T00:54:28.229Z,6.80
2019-03-30T00:57:00.721Z,6.75
2019-03-30T00:59:35.222Z,5.60
2019-03-30T01:02:07.720Z,6.00
2019-03-30T01:04:40.752Z,5.90
2019-03-30T01:07:13.228Z,5.87
2019-03-30T01:09:47.248Z,5.90
2019-03-30T01:12:19.809Z,5.42
2019-03-30T01:14:53.114Z,5.87
2019-03-30T01:17:26.331Z,5.10
2019-03-30T01:20:03.193Z,12.70
2019-03-30T01:22:33.856Z,12.53
2019-03-30T01:25:08.582Z,7.10
2019-03-30T01:27:41.376Z,5.65
2019-03-30T01:30:22.961Z,5.37
2019-03-30T01:32:49.174Z,5.15
2019-03-30T01:35:21.522Z,5.72
2019-03-30T01:37:54.173Z,6.00
2019-03-30T01:40:27.280Z,5.95
2019-03-30T01:42:59.830Z,5.95
2019-03-30T01:45:33.089Z,5.37
2019-03-30T01:48:05.133Z,5.65
2019-03-30T01:50:38.145Z,5.65
2019-03-30T01:53:12.521Z,5.65
2019-03-30T01:55:48.449Z,5.80
2019-03-30T01:58:21.098Z,5.40
2019-03-30T02:00:53.635Z,5.78
2019-03-30T02:03:25.702Z,6.08
2019-03-30T02:05:58.924Z,5.78
2019-03-30T02:08:33.230Z,5.83
2019-03-30T02:11:05.893Z,6.47
2019-03-30T02:13:37.931Z,5.60
2019-03-30T02:16:10.028Z,6.10
2019-03-30T02:18:42.491Z,5.90
2019-03-30T02:21:15.164Z,5.28
2019-03-30T02:23:47.201Z,6.20
2019-03-30T02:26:19.813Z,5.90
2019-03-30T02:28:52.860Z,5.00
2019-03-30T02:31:26.408Z,4.72
2019-03-30T02:33:58.433Z,5.15
2019-03-30T02:36:31.473Z,5.72
2019-03-30T02:39:04.456Z,6.03
2019-03-30T02:41:37.555Z,5.92
2019-03-30T02:44:10.313Z,5.83
2019-03-30T02:46:43.720Z,5.37
2019-03-30T02:49:16.177Z,4.90
2019-03-30T02:51:49.280Z,5.62
2019-03-30T02:54:22.555Z,4.95
2019-03-30T02:56:55.156Z,5.03
2019-03-30T02:59:27.210Z,5.20
2019-03-30T03:01:59.803Z,5.05
2019-03-30T03:04:32.440Z,5.08
2019-03-30T03:07:04.712Z,5.00
2019-03-30T03:09:38.483Z,4.67
2019-03-30T03:12:10.589Z,5.17
2019-03-30T03:14:43.088Z,4.25
2019-03-30T03:17:15.973Z,4.53
2019-03-30T03:19:48.516Z,4.90
2019-03-30T03:22:21.196Z,5.00
2019-03-30T03:24:53.226Z,4.75
2019-03-30T03:27:25.732Z,5.37
2019-03-30T03:29:59.455Z,4.85
2019-03-30T03:32:32.261Z,5.28
2019-03-30T03:35:05.097Z,5.60
2019-03-30T03:37:45.289Z,8.05
2019-03-30T03:40:14.091Z,17.87
2019-03-30T03:42:46.806Z,7.40
2019-03-30T03:45:18.857Z,15.88
2019-03-30T03:47:52.334Z,14.90
2019-03-30T03:50:57.061Z,6.08
2019-03-30T03:53:30.665Z,5.17
2019-03-30T03:56:05.380Z,5.50
2019-03-30T03:58:40.894Z,5.28
2019-03-30T04:01:13.344Z,5.70
2019-03-30T04:03:47.650Z,5.35
2019-03-30T04:06:20.885Z,5.28
2019-03-30T04:08:55.546Z,5.37
2019-03-30T04:11:31.930Z,5.10
2019-03-30T04:14:06.793Z,4.67
2019-03-30T04:16:38.958Z,5.28
2019-03-30T04:19:12.003Z,4.70
2019-03-30T04:21:45.053Z,4.67
2019-03-30T04:24:19.270Z,4.35
2019-03-30T04:26:51.758Z,4.47
2019-03-30T04:29:24.379Z,4.40
2019-03-30T04:31:57.693Z,4.33
2019-03-30T04:34:30.743Z,4.12
2019-03-30T04:37:03.233Z,4.15
2019-03-30T04:39:37.268Z,4.00
2019-03-30T04:42:10.625Z,3.90
2019-03-30T04:44:44.810Z,3.60
2019-03-30T04:47:17.432Z,3.65
2019-03-30T04:49:50.730Z,3.90
2019-03-30T04:52:24.742Z,3.17
2019-03-30T04:54:57.664Z,3.37
2019-03-30T04:57:32.536Z,3.60
2019-03-30T05:00:05.763Z,3.35
2019-03-30T05:02:39.464Z,3.12
2019-03-30T05:05:12.919Z,3.75
2019-03-30T05:07:45.410Z,4.37
2019-03-30T05:10:19.464Z,3.33
2019-03-30T05:12:53.893Z,3.50
2019-03-30T05:15:28.432Z,3.37
2019-03-30T05:18:02.375Z,3.98
2019-03-30T05:20:36.742Z,3.63
2019-03-30T05:23:09.980Z,4.30
2019-03-30T05:25:42.516Z,5.77
2019-03-30T05:28:16.820Z,6.23
2019-03-30T05:30:51.980Z,3.50
2019-03-30T05:33:26.684Z,3.00
2019-03-30T05:36:00.288Z,2.83
2019-03-30T05:38:34.152Z,3.57
2019-03-30T05:41:07.272Z,3.13
2019-03-30T05:43:39.896Z,3.70
2019-03-30T05:46:12.841Z,2.80
2019-03-30T05:48:46.954Z,6.33
2019-03-30T05:51:22.030Z,3.80
2019-03-30T05:53:56.275Z,2.83
2019-03-30T05:56:30.136Z,2.87
2019-03-30T05:59:05.247Z,3.03
2019-03-30T06:01:40.973Z,4.30
2019-03-30T06:04:15.270Z,3.10
2019-03-30T06:06:48.855Z,4.30
2019-03-30T06:09:23.687Z,7.03
2019-03-30T06:11:58.544Z,3.10
2019-03-30T06:14:31.773Z,3.00
2019-03-30T06:17:06.796Z,2.53
2019-03-30T06:19:40.156Z,15.37
2019-03-30T06:22:14.136Z,5.90
2019-03-30T06:24:48.352Z,3.17
2019-03-30T06:27:22.613Z,16.07
2019-03-30T06:30:17.637Z,24.73
2019-03-30T06:33:00.688Z,3.57
2019-03-30T06:35:33.672Z,13.70
2019-03-30T06:38:07.043Z,18.47
2019-03-30T06:40:40.676Z,3.87
2019-03-30T06:43:14.321Z,5.80
2019-03-30T06:45:47.482Z,18.53
2019-03-30T06:48:21.860Z,10.73
2019-03-30T06:50:55.363Z,16.70
2019-03-30T06:53:29.127Z,4.43
2019-03-30T06:56:03.867Z,4.50
2019-03-30T06:58:38.752Z,4.00
2019-03-30T07:01:16.086Z,3.70
2019-03-30T07:03:50.257Z,4.30
2019-03-30T07:06:26.754Z,2.90
2019-03-30T07:09:05.293Z,18.93
2019-03-30T07:11:42.996Z,24.37
2019-03-30T07:14:17.945Z,13.07
2019-03-30T07:16:54.249Z,6.73
2019-03-30T07:19:31.639Z,23.77
2019-03-30T07:22:04.106Z,4.47
2019-03-30T07:24:39.051Z,27.67
2019-03-30T07:27:14.279Z,19.73
2019-03-30T07:29:48.004Z,29.63
2019-03-30T07:32:21.323Z,4.60
2019-03-30T07:34:55.364Z,18.30
2019-03-30T07:37:29.028Z,25.43
2019-03-30T07:40:03.693Z,4.07
2019-03-30T07:42:36.759Z,8.00
2019-03-30T07:45:11.747Z,3.90
2019-03-30T07:47:46.698Z,3.53
2019-03-30T07:50:20.574Z,3.17
2019-03-30T07:52:53.408Z,3.83
2019-03-30T07:55:27.008Z,3.00
2019-03-30T07:58:00.898Z,2.77
2019-03-30T08:00:35.200Z,13.40
2019-03-30T08:03:10.661Z,3.00
2019-03-30T08:05:48.355Z,17.90
2019-03-30T08:08:25.764Z,23.17
2019-03-30T08:11:02.371Z,4.57
2019-03-30T08:13:36.809Z,4.23
2019-03-30T08:16:10.730Z,29.03
2019-03-30T08:18:44.277Z,14.13
2019-03-30T08:21:18.609Z,2.50
2019-03-30T08:23:52.088Z,2.47
2019-03-30T08:26:26.204Z,2.50
2019-03-30T08:29:00.375Z,2.17
2019-03-30T08:31:36.576Z,3.97
2019-03-30T08:34:11.954Z,2.27
2019-03-30T08:36:48.543Z,5.20
2019-03-30T08:39:23.920Z,2.57
2019-03-30T08:42:00.005Z,3.97
2019-03-30T08:44:35.388Z,4.57
2019-03-30T08:47:08.452Z,3.50
2019-03-30T08:49:42.285Z,3.20
2019-03-30T08:52:17.308Z,3.57
2019-03-30T08:54:50.416Z,3.40
2019-03-30T08:57:24.574Z,3.03
2019-03-30T08:59:58.352Z,13.63
2019-03-30T09:02:34.983Z,39.93
2019-03-30T09:05:09.216Z,3.50
2019-03-30T09:07:43.590Z,3.97
2019-03-30T09:10:16.506Z,4.43
2019-03-30T09:12:52.361Z,6.77
2019-03-30T09:15:27.232Z,5.20
2019-03-30T09:18:00.836Z,5.53
2019-03-30T09:20:33.338Z,6.57
2019-03-30T09:23:08.620Z,4.43
2019-03-30T09:25:43.173Z,5.30
2019-03-30T09:28:16.770Z,5.97
2019-03-30T09:30:52.264Z,4.73
2019-03-30T09:33:26.879Z,3.47
2019-03-30T09:36:00.983Z,3.97
2019-03-30T09:38:35.393Z,3.63
2019-03-30T09:41:08.135Z,8.87
2019-03-30T09:43:44.326Z,6.37
2019-03-30T09:46:18.815Z,5.80
2019-03-30T09:49:01.930Z,4.73
2019-03-30T09:51:37.283Z,3.37
2019-03-30T09:54:23.177Z,4.03
2019-03-30T09:56:47.550Z,3.80
2019-03-30T09:59:20.400Z,4.27
2019-03-30T10:01:54.435Z,4.10
2019-03-30T10:04:29.669Z,2.70
2019-03-30T10:07:03.492Z,3.33
2019-03-30T10:09:36.865Z,3.77
2019-03-30T10:12:12.394Z,6.30
2019-03-30T10:14:48.389Z,3.03
2019-03-30T10:17:23.944Z,2.57
2019-03-30T10:20:04.345Z,4.23
2019-03-30T10:22:36.805Z,3.20
2019-03-30T10:25:09.795Z,2.57
2019-03-30T10:27:44.609Z,3.33
2019-03-30T10:30:18.336Z,3.23
2019-03-30T10:32:52.273Z,2.97
2019-03-30T10:35:25.352Z,3.30
2019-03-30T10:37:59.251Z,3.70
2019-03-30T10:40:35.505Z,3.13
2019-03-30T10:43:08.473Z,3.10
2019-03-30T10:45:42.368Z,3.13
2019-03-30T10:48:17.860Z,2.70
2019-03-30T10:50:51.608Z,3.10
2019-03-30T10:53:27.680Z,3.23
2019-03-30T10:56:01.949Z,3.73
2019-03-30T10:58:36.800Z,2.40
2019-03-30T11:01:10.919Z,3.53
2019-03-30T11:03:45.184Z,2.30
2019-03-30T11:06:18.853Z,2.77
2019-03-30T11:08:53.076Z,2.23
2019-03-30T11:11:27.039Z,2.90
2019-03-30T11:13:59.864Z,3.40
2019-03-30T11:16:35.640Z,2.40
2019-03-30T11:19:12.305Z,2.50
2019-03-30T11:21:49.354Z,3.10
2019-03-30T11:24:26.613Z,2.53
2019-03-30T11:27:00.487Z,2.53
2019-03-30T11:29:38.048Z,2.60
2019-03-30T11:32:14.121Z,2.90
2019-03-30T11:34:48.225Z,2.67
2019-03-30T11:37:21.745Z,3.53
2019-03-30T11:39:55.789Z,2.70
2019-03-30T11:42:29.788Z,2.20
2019-03-30T11:45:10.822Z,2.83
2019-03-30T11:47:44.284Z,2.40
2019-03-30T11:50:20.093Z,3.80
2019-03-30T11:52:54.726Z,2.77
2019-03-30T11:55:29.298Z,12.10
2019-03-30T11:58:03.468Z,3.20
2019-03-30T12:00:37.471Z,3.63
2019-03-30T12:03:11.645Z,2.40
2019-03-30T12:05:47.090Z,32.03
2019-03-30T12:08:21.515Z,3.33
2019-03-30T12:10:58.311Z,3.73
2019-03-30T12:13:33.604Z,2.63
2019-03-30T12:16:07.931Z,2.97
2019-03-30T12:18:41.727Z,2.90
2019-03-30T12:21:16.710Z,2.60
2019-03-30T12:23:53.492Z,3.30
2019-03-30T12:26:27.138Z,2.97
2019-03-30T12:29:03.266Z,2.03
2019-03-30T12:31:40.156Z,2.90
2019-03-30T12:34:13.832Z,2.57
2019-03-30T12:36:47.599Z,2.43
2019-03-30T12:39:22.208Z,2.90
2019-03-30T12:41:56.327Z,2.27
2019-03-30T12:44:34.925Z,2.57
2019-03-30T12:47:10.520Z,7.67
2019-03-30T12:49:55.345Z,5.47
2019-03-30T12:52:30.473Z,4.53
2019-03-30T12:55:06.452Z,11.50
2019-03-30T12:57:53.598Z,7.63
2019-03-30T13:00:28.868Z,6.83
2019-03-30T13:03:05.829Z,4.90
2019-03-30T13:05:42.849Z,3.70
2019-03-30T13:08:17.548Z,4.40
2019-03-30T13:10:57.836Z,2.87
2019-03-30T13:13:45.538Z,2.80
2019-03-30T13:16:19.713Z,2.50
2019-03-30T13:19:00.577Z,2.60
2019-03-30T13:21:35.620Z,3.43
2019-03-30T13:24:10.618Z,2.57
2019-03-30T13:27:13.434Z,3.70
2019-03-30T13:30:00.407Z,3.30
2019-03-30T13:32:39.265Z,3.30
2019-03-30T13:35:17.859Z,2.47
2019-03-30T13:37:51.704Z,3.87
2019-03-30T13:40:27.159Z,3.83
2019-03-30T13:43:02.980Z,3.43
2019-03-30T13:45:38.522Z,3.00
2019-03-30T13:48:12.295Z,4.13
2019-03-30T13:50:47.712Z,3.83
2019-03-30T13:53:24.205Z,3.00
2019-03-30T13:56:01.473Z,2.90
2019-03-30T13:58:36.686Z,3.63
2019-03-30T14:01:13.711Z,2.80
2019-03-30T14:03:49.391Z,2.70
2019-03-30T14:06:27.950Z,3.30
2019-03-30T14:09:06.693Z,3.60
2019-03-30T14:11:44.877Z,3.03
2019-03-30T14:14:21.706Z,4.93
2019-03-30T14:16:56.487Z,3.97
2019-03-30T14:19:41.060Z,3.53
2019-03-30T14:22:17.401Z,3.30
2019-03-30T14:24:51.820Z,4.43
2019-03-30T14:27:26.979Z,3.40
2019-03-30T14:30:02.208Z,3.50
2019-03-30T14:32:35.887Z,3.43
2019-03-30T14:35:10.475Z,3.20
2019-03-30T14:37:46.750Z,3.80
2019-03-30T14:40:20.806Z,3.80
2019-03-30T14:42:58.759Z,3.20
2019-03-30T14:45:33.676Z,4.03
2019-03-30T14:48:09.821Z,3.70
2019-03-30T14:50:44.967Z,3.33
2019-03-30T14:53:21.284Z,4.10
2019-03-30T14:55:54.896Z,3.30
2019-03-30T14:58:29.533Z,3.63
2019-03-30T15:01:03.355Z,3.63
2019-03-30T15:03:39.236Z,3.80
2019-03-30T15:06:14.350Z,3.43
2019-03-30T15:08:48.603Z,3.60
2019-03-30T15:11:21.960Z,4.13
2019-03-30T15:13:55.667Z,3.87
2019-03-30T15:16:28.270Z,4.40
2019-03-30T15:19:01.722Z,3.97
2019-03-30T15:21:34.717Z,4.10
2019-03-30T15:24:08.036Z,5.03
2019-03-30T15:26:41.068Z,5.23
2019-03-30T15:29:16.384Z,4.30
2019-03-30T15:31:50.820Z,3.83
2019-03-30T15:34:25.120Z,3.90
2019-03-30T15:36:59.799Z,4.00
2019-03-30T15:39:33.893Z,6.00
2019-03-30T15:42:09.121Z,3.73
2019-03-30T15:44:45.034Z,4.47
2019-03-30T15:47:19.428Z,3.70
2019-03-30T15:49:54.725Z,4.07
2019-03-30T15:52:29.786Z,3.43
2019-03-30T15:55:03.365Z,4.50
2019-03-30T15:57:38.720Z,4.60
2019-03-30T16:00:15.688Z,4.20
2019-03-30T16:02:49.568Z,6.80
2019-03-30T16:05:24.487Z,7.00
2019-03-30T16:07:59.751Z,5.57
2019-03-30T16:10:34.991Z,5.83
2019-03-30T16:13:08.524Z,5.80
2019-03-30T16:15:44.573Z,4.77
2019-03-30T16:18:20.261Z,4.63
2019-03-30T16:20:52.800Z,4.40
2019-03-30T16:23:27.867Z,3.83
2019-03-30T16:26:01.475Z,13.70
2019-03-30T16:28:35.115Z,17.53
2019-03-30T16:31:08.077Z,9.37
2019-03-30T16:33:41.497Z,7.57
2019-03-30T16:36:15.749Z,19.90
2019-03-30T16:38:49.227Z,35.95
2019-03-30T16:41:21.928Z,50.55
2019-03-30T16:43:58.218Z,14.58
2019-03-30T16:46:32.461Z,25.43
2019-03-30T16:49:05.799Z,50.38
2019-03-30T16:51:40.149Z,23.27
2019-03-30T16:54:13.262Z,23.42
2019-03-30T16:56:56.444Z,20.95
2019-03-30T16:59:30.873Z,10.03
2019-03-30T17:02:04.768Z,5.75
2019-03-30T17:04:39.791Z,6.28
2019-03-30T17:07:15.483Z,9.50
2019-03-30T17:09:50.052Z,14.53
2019-03-30T17:12:24.169Z,9.28
2019-03-30T17:14:59.412Z,23.18
2019-03-30T17:17:37.138Z,20.68
2019-03-30T17:20:13.799Z,9.25
2019-03-30T17:22:46.709Z,9.10
2019-03-30T17:25:21.441Z,6.67
2019-03-30T17:27:58.618Z,9.98
2019-03-30T17:30:30.401Z,45.80
2019-03-30T17:33:03.369Z,54.23
2019-03-30T17:35:36.547Z,33.42
2019-03-30T17:38:09.775Z,5.62
2019-03-30T17:40:42.803Z,6.80
2019-03-30T17:43:17.100Z,6.20
2019-03-30T17:45:49.208Z,7.17
2019-03-30T17:48:23.516Z,6.85
2019-03-30T17:50:58.622Z,5.55
2019-03-30T17:53:33.376Z,7.05
2019-03-30T17:56:07.215Z,6.30
2019-03-30T17:58:40.201Z,12.65
2019-03-30T18:01:15.950Z,12.50
2019-03-30T18:03:50.377Z,8.48
2019-03-30T18:06:24.548Z,7.40
2019-03-30T18:08:58.296Z,9.03
2019-03-30T18:11:32.992Z,7.90
2019-03-30T18:14:08.046Z,7.00
2019-03-30T18:16:41.174Z,8.75
2019-03-30T18:19:14.513Z,7.45
2019-03-30T18:21:50.660Z,7.70
2019-03-30T18:24:24.019Z,7.30
2019-03-30T18:26:59.313Z,6.95
2019-03-30T18:29:32.753Z,6.65
2019-03-30T18:32:08.073Z,7.80
2019-03-30T18:34:45.096Z,7.72
2019-03-30T18:37:20.760Z,7.85
2019-03-30T18:39:57.137Z,7.72
2019-03-30T18:42:32.246Z,7.17
2019-03-30T18:45:07.704Z,7.12
2019-03-30T18:47:41.639Z,7.12
2019-03-30T18:50:15.455Z,7.28
2019-03-30T18:52:48.716Z,6.67
2019-03-30T18:55:25.749Z,6.72
2019-03-30T18:58:01.348Z,7.45
2019-03-30T19:00:35.276Z,6.92
2019-03-30T19:03:08.752Z,6.65
2019-03-30T19:05:41.255Z,6.40
2019-03-30T19:08:15.876Z,6.87
2019-03-30T19:10:49.440Z,8.00
2019-03-30T19:13:23.164Z,6.60
2019-03-30T19:15:57.353Z,7.40
2019-03-30T19:18:32.293Z,6.75
2019-03-30T19:21:05.644Z,6.70
2019-03-30T19:23:40.638Z,7.10
2019-03-30T19:26:15.926Z,6.78
2019-03-30T19:28:56.447Z,6.33
2019-03-30T19:31:26.455Z,7.62
2019-03-30T19:34:03.971Z,6.85
2019-03-30T19:36:39.762Z,7.20
2019-03-30T19:39:13.395Z,7.28
2019-03-30T19:41:48.365Z,7.85
2019-03-30T19:44:23.805Z,7.20
2019-03-30T19:46:59.431Z,7.55
2019-03-30T19:49:36.001Z,7.17
2019-03-30T19:52:18.890Z,7.42
2019-03-30T19:54:52.927Z,7.80
2019-03-30T19:57:27.978Z,7.87
2019-03-30T20:00:02.391Z,7.33
2019-03-30T20:02:37.505Z,8.00
2019-03-30T20:05:12.297Z,7.75
2019-03-30T20:07:45.583Z,7.75
2019-03-30T20:10:21.802Z,7.87
2019-03-30T20:12:57.157Z,7.25
2019-03-30T20:15:31.756Z,7.87
2019-03-30T20:18:05.564Z,7.50
2019-03-30T20:20:39.888Z,8.08
2019-03-30T20:23:15.250Z,7.75
2019-03-30T20:25:50.188Z,7.10
2019-03-30T20:28:23.869Z,7.50
2019-03-30T20:31:14.908Z,7.33
2019-03-30T20:33:48.648Z,7.58
2019-03-30T20:36:22.391Z,7.05
2019-03-30T20:38:56.873Z,6.78
2019-03-30T20:41:30.389Z,7.28
2019-03-30T20:44:03.683Z,6.92
2019-03-30T20:46:38.890Z,7.50
2019-03-30T20:49:14.006Z,6.95
2019-03-30T20:51:46.558Z,7.10
2019-03-30T20:54:39.004Z,6.50
2019-03-30T20:57:12.821Z,6.30
2019-03-30T20:59:46.624Z,6.87
2019-03-30T21:02:19.593Z,7.30
2019-03-30T21:05:12.288Z,6.90
2019-03-30T21:07:47.621Z,7.37
2019-03-30T21:10:22.336Z,7.83
2019-03-30T21:12:57.385Z,10.82
2019-03-30T21:15:31.939Z,32.93
2019-03-30T21:18:05.843Z,41.55
2019-03-30T21:20:39.915Z,25.43
2019-03-30T21:23:16.808Z,38.85
2019-03-30T21:25:52.063Z,19.50
2019-03-30T21:28:27.622Z,22.80
2019-03-30T21:31:02.616Z,77.27
2019-03-30T21:33:36.370Z,41.70
2019-03-30T21:36:10.024Z,72.55
2019-03-30T21:38:42.152Z,101.65
2019-03-30T21:41:16.131Z,39.35
2019-03-30T21:43:52.735Z,15.53
2019-03-30T21:46:26.717Z,14.30
2019-03-30T21:49:00.999Z,21.33
2019-03-30T21:51:35.316Z,9.40
2019-03-30T21:54:09.531Z,16.20
2019-03-30T21:56:42.892Z,10.55
2019-03-30T21:59:17.060Z,17.23
2019-03-30T22:01:53.447Z,12.30
2019-03-30T22:04:27.932Z,10.63
2019-03-30T22:07:01.422Z,11.10
2019-03-30T22:09:35.951Z,13.75
2019-03-30T22:12:09.948Z,15.93
2019-03-30T22:14:53.176Z,22.17
2019-03-30T22:17:26.997Z,31.42
2019-03-30T22:20:00.451Z,24.50
2019-03-30T22:22:34.447Z,24.60
2019-03-30T22:25:07.748Z,20.70
2019-03-30T22:27:41.918Z,74.40
2019-03-30T22:30:24.565Z,86.30
2019-03-30T22:32:50.705Z,82.40
2019-03-30T22:35:23.351Z,32.75
2019-03-30T22:37:58.745Z,19.32
2019-03-30T22:40:32.906Z,17.32
2019-03-30T22:43:06.861Z,26.23
2019-03-30T22:45:40.919Z,29.50
2019-03-30T22:48:17.192Z,27.93
2019-03-30T22:50:52.619Z,27.98
2019-03-30T22:53:25.561Z,28.07
2019-03-30T22:55:59.624Z,29.32
2019-03-30T22:58:33.126Z,31.20
2019-03-30T23:01:09.223Z,36.15
2019-03-30T23:03:46.292Z,63.10
2019-03-30T23:06:20.654Z,59.38
2019-03-30T23:08:53.785Z,40.23
2019-03-30T23:11:27.895Z,50.33
2019-03-30T23:14:01.764Z,36.58
2019-03-30T23:16:36.011Z,37.55
2019-03-30T23:19:09.688Z,26.23
2019-03-30T23:21:43.664Z,22.70
2019-03-30T23:24:16.651Z,22.20
2019-03-30T23:26:50.712Z,19.10
2019-03-30T23:29:25.062Z,16.90
2019-03-30T23:32:00.426Z,15.72
2019-03-30T23:34:35.355Z,14.95
2019-03-30T23:37:26.317Z,12.63
2019-03-30T23:39:59.906Z,13.68
2019-03-30T23:42:34.021Z,14.65
2019-03-30T23:45:09.704Z,15.32
2019-03-30T23:47:42.951Z,24.80
2019-03-30T23:50:26.437Z,20.00
2019-03-30T23:52:59.340Z,18.50
2019-03-30T23:55:31.952Z,20.57
2019-03-30T23:58:05.619Z,25.50
